sensor_id;sensor_type;location;lat;lon;timestamp;pressure;altitude;pressure_sealevel;temperature;humidity
68145;BME280;55400;51.824;-0.196;2023-02-14T00:02:17;102254.74;;;4.62;73.34
68145;BME280;55400;51.824;-0.196;2023-02-14T00:06:17;102252.81;;;4.57;73.34
68145;BME280;55400;51.824;-0.196;2023-02-14T00:10:17;102245.04;;;4.51;72.98
68145;BME280;55400;51.824;-0.196;2023-02-14T00:14:17;102248.47;;;4.44;72.98
68145;BME280;55400;51.824;-0.196;2023-02-14T00:18:17;102248.47;;;4.34;73.05
68145;BME280;55400;51.824;-0.196;2023-02-14T00:22:17;102242.53;;;4.22;72.36
68145;BME280;55400;51.824;-0.196;2023-02-14T00:26:17;102242.53;;;4.12;72.37
68145;BME280;55400;51.824;-0.196;2023-02-14T00:30:17;102239.69;;;4.02;72.16
68145;BME280;55400;51.824;-0.196;2023-02-14T00:34:17;102239.69;;;3.94;72.22
68145;BME280;55400;51.824;-0.196;2023-02-14T00:38:17;102234.0;;;3.84;72.24
68145;BME280;55400;51.824;-0.196;2023-02-14T00:42:17;102232.08;;;3.78;72.22
68145;BME280;55400;51.824;-0.196;2023-02-14T00:46:18;102232.08;;;3.73;72.22
68145;BME280;55400;51.824;-0.196;2023-02-14T00:50:17;102231.16;;;3.66;71.88
68145;BME280;55400;51.824;-0.196;2023-02-14T00:54:17;102229.72;;;3.59;71.88
68145;BME280;55400;51.824;-0.196;2023-02-14T00:58:17;102225.7;;;3.57;71.83
68145;BME280;55400;51.824;-0.196;2023-02-14T01:02:17;102228.23;;;3.54;71.83
68145;BME280;55400;51.824;-0.196;2023-02-14T01:06:17;102224.05;;;3.48;71.94
68145;BME280;55400;51.824;-0.196;2023-02-14T01:10:17;102224.05;;;3.46;71.76
68145;BME280;55400;51.824;-0.196;2023-02-14T01:14:17;102221.47;;;3.40;71.87
68145;BME280;55400;51.824;-0.196;2023-02-14T01:18:17;102220.26;;;3.36;71.68
68145;BME280;55400;51.824;-0.196;2023-02-14T01:22:17;102220.26;;;3.35;71.77
68145;BME280;55400;51.824;-0.196;2023-02-14T01:26:18;102216.35;;;3.30;71.86
68145;BME280;55400;51.824;-0.196;2023-02-14T01:30:17;102217.15000000001;;;3.22;71.95
68145;BME280;55400;51.824;-0.196;2023-02-14T01:34:17;102217.43000000001;;;3.18;71.95
68145;BME280;55400;51.824;-0.196;2023-02-14T01:38:17;102214.97;;;3.12;71.96
68145;BME280;55400;51.824;-0.196;2023-02-14T01:42:17;102211.51999999999;;;3.09;71.96
68145;BME280;55400;51.824;-0.196;2023-02-14T01:46:17;102216.67;;;3.02;71.85
68145;BME280;55400;51.824;-0.196;2023-02-14T01:50:18;102208.4;;;2.94;71.93
68145;BME280;55400;51.824;-0.196;2023-02-14T01:54:17;102214.45;;;2.86;72.11
68145;BME280;55400;51.824;-0.196;2023-02-14T01:58:18;102206.79000000001;;;2.80;71.98
68145;BME280;55400;51.824;-0.196;2023-02-14T02:02:17;102211.11;;;2.75;72.10
68145;BME280;55400;51.824;-0.196;2023-02-14T02:06:18;102208.73;;;2.67;72.10
68145;BME280;55400;51.824;-0.196;2023-02-14T02:10:17;102210.85;;;2.60;72.30
68145;BME280;55400;51.824;-0.196;2023-02-14T02:14:18;102210.85;;;2.52;72.39
68145;BME280;55400;51.824;-0.196;2023-02-14T02:18:18;102204.1;;;2.47;72.51
68145;BME280;55400;51.824;-0.196;2023-02-14T02:22:25;102202.8;;;2.41;72.51
68145;BME280;55400;51.824;-0.196;2023-02-14T02:30:24;102201.79000000001;;;2.28;72.58
68145;BME280;55400;51.824;-0.196;2023-02-14T02:34:23;102203.67;;;2.24;72.69
68145;BME280;55400;51.824;-0.196;2023-02-14T02:38:22;102203.67;;;2.21;72.69
68145;BME280;55400;51.824;-0.196;2023-02-14T02:42:20;102202.55;;;2.20;72.85
68145;BME280;55400;51.824;-0.196;2023-02-14T02:46:19;102194.3;;;2.21;73.01
68145;BME280;55400;51.824;-0.196;2023-02-14T02:58:18;102191.33;;;2.23;73.31
68145;BME280;55400;51.824;-0.196;2023-02-14T03:02:18;102188.06;;;2.21;73.30
68145;BME280;55400;51.824;-0.196;2023-02-14T03:06:17;102181.42;;;2.22;73.30
68145;BME280;55400;51.824;-0.196;2023-02-14T03:10:18;102190.52;;;2.18;73.11
68145;BME280;55400;51.824;-0.196;2023-02-14T03:14:18;102180.22;;;2.11;73.05
68145;BME280;55400;51.824;-0.196;2023-02-14T03:18:22;102176.01;;;2.12;73.27
68145;BME280;55400;51.824;-0.196;2023-02-14T03:22:20;102174.36;;;2.11;73.27
68145;BME280;55400;51.824;-0.196;2023-02-14T03:26:18;102172.61;;;2.06;73.43
68145;BME280;55400;51.824;-0.196;2023-02-14T03:30:19;102172.61;;;2.01;73.60
68145;BME280;55400;51.824;-0.196;2023-02-14T03:34:19;102174.8;;;1.97;73.83
68145;BME280;55400;51.824;-0.196;2023-02-14T03:38:19;102174.8;;;1.93;73.83
68145;BME280;55400;51.824;-0.196;2023-02-14T03:42:18;102168.64;;;1.88;73.89
68145;BME280;55400;51.824;-0.196;2023-02-14T03:46:19;102168.01000000001;;;1.83;74.35
68145;BME280;55400;51.824;-0.196;2023-02-14T03:50:18;102171.03;;;1.80;74.35
68145;BME280;55400;51.824;-0.196;2023-02-14T03:54:18;102164.62;;;1.76;74.50
68145;BME280;55400;51.824;-0.196;2023-02-14T03:58:18;102164.62;;;1.70;74.50
68145;BME280;55400;51.824;-0.196;2023-02-14T04:02:18;102169.29000000001;;;1.66;74.65
68145;BME280;55400;51.824;-0.196;2023-02-14T04:06:18;102159.84;;;1.65;74.97
68145;BME280;55400;51.824;-0.196;2023-02-14T04:10:18;102159.84;;;1.68;74.97
68145;BME280;55400;51.824;-0.196;2023-02-14T04:14:18;102160.17;;;1.69;75.06
68145;BME280;55400;51.824;-0.196;2023-02-14T04:22:18;102159.28;;;1.67;75.09
68145;BME280;55400;51.824;-0.196;2023-02-14T04:26:18;102159.28;;;1.65;75.09
68145;BME280;55400;51.824;-0.196;2023-02-14T04:30:18;102159.89;;;1.63;75.06
68145;BME280;55400;51.824;-0.196;2023-02-14T04:34:18;102159.89;;;1.59;75.10
68145;BME280;55400;51.824;-0.196;2023-02-14T04:38:18;102160.17;;;1.55;75.23
68145;BME280;55400;51.824;-0.196;2023-02-14T04:42:18;102163.51;;;1.52;75.23
68145;BME280;55400;51.824;-0.196;2023-02-14T04:46:18;102160.75;;;1.49;75.25
68145;BME280;55400;51.824;-0.196;2023-02-14T04:54:18;102155.84999999999;;;1.48;75.36
68145;BME280;55400;51.824;-0.196;2023-02-14T05:02:18;102169.45;;;1.47;75.55
68145;BME280;55400;51.824;-0.196;2023-02-14T05:06:18;102168.39;;;1.46;75.45
68145;BME280;55400;51.824;-0.196;2023-02-14T05:10:18;102167.8;;;1.44;75.47
68145;BME280;55400;51.824;-0.196;2023-02-14T05:14:18;102167.19;;;1.42;75.57
68145;BME280;55400;51.824;-0.196;2023-02-14T05:18:18;102167.86;;;1.43;75.57
68145;BME280;55400;51.824;-0.196;2023-02-14T05:22:18;102166.16;;;1.39;75.51
68145;BME280;55400;51.824;-0.196;2023-02-14T05:30:18;102157.33;;;1.38;75.73
68145;BME280;55400;51.824;-0.196;2023-02-14T05:34:18;102155.17;;;1.34;75.52
68145;BME280;55400;51.824;-0.196;2023-02-14T05:38:18;102155.17;;;1.33;75.56
68145;BME280;55400;51.824;-0.196;2023-02-14T05:42:18;102166.27;;;1.32;75.76
68145;BME280;55400;51.824;-0.196;2023-02-14T05:46:18;102175.08;;;1.30;75.76
68145;BME280;55400;51.824;-0.196;2023-02-14T05:50:18;102175.08;;;1.27;75.71
68145;BME280;55400;51.824;-0.196;2023-02-14T05:54:18;102174.67;;;1.23;75.82
68145;BME280;55400;51.824;-0.196;2023-02-14T05:58:18;102172.29999999999;;;1.22;76.04
68145;BME280;55400;51.824;-0.196;2023-02-14T06:02:18;102166.54999999999;;;1.20;76.18
68145;BME280;55400;51.824;-0.196;2023-02-14T06:06:18;102164.58;;;1.22;76.22
68145;BME280;55400;51.824;-0.196;2023-02-14T06:10:19;102169.92;;;1.16;76.22
68145;BME280;55400;51.824;-0.196;2023-02-14T06:14:18;102163.87;;;1.09;75.82
68145;BME280;55400;51.824;-0.196;2023-02-14T06:18:18;102163.87;;;1.05;76.09
68145;BME280;55400;51.824;-0.196;2023-02-14T06:22:18;102167.90999999999;;;1.01;76.24
68145;BME280;55400;51.824;-0.196;2023-02-14T06:26:18;102172.38;;;0.98;76.46
68145;BME280;55400;51.824;-0.196;2023-02-14T06:30:18;102172.38;;;1.01;76.46
68145;BME280;55400;51.824;-0.196;2023-02-14T06:34:18;102176.39;;;1.02;76.34
68145;BME280;55400;51.824;-0.196;2023-02-14T06:38:18;102181.55;;;0.97;76.15
68145;BME280;55400;51.824;-0.196;2023-02-14T06:42:18;102181.55;;;0.96;76.05
68145;BME280;55400;51.824;-0.196;2023-02-14T06:46:18;102182.33;;;0.93;76.14
68145;BME280;55400;51.824;-0.196;2023-02-14T06:50:18;102185.69;;;0.89;75.96
68145;BME280;55400;51.824;-0.196;2023-02-14T06:54:18;102185.69;;;0.87;76.12
68145;BME280;55400;51.824;-0.196;2023-02-14T06:58:18;102190.06000000001;;;0.84;76.15
68145;BME280;55400;51.824;-0.196;2023-02-14T07:02:18;102195.79;;;0.83;76.00
68145;BME280;55400;51.824;-0.196;2023-02-14T07:06:18;102196.76;;;0.78;75.95
68145;BME280;55400;51.824;-0.196;2023-02-14T07:10:18;102196.76;;;0.77;75.95
68145;BME280;55400;51.824;-0.196;2023-02-14T07:14:18;102200.06;;;0.80;76.07
68145;BME280;55400;51.824;-0.196;2023-02-14T07:18:18;102202.61;;;0.83;76.07
68145;BME280;55400;51.824;-0.196;2023-02-14T07:22:18;102202.61;;;0.85;76.09
68145;BME280;55400;51.824;-0.196;2023-02-14T07:26:18;102208.26;;;0.86;75.97
68145;BME280;55400;51.824;-0.196;2023-02-14T07:30:18;102208.26;;;0.82;75.97
68145;BME280;55400;51.824;-0.196;2023-02-14T07:34:18;102218.20999999999;;;0.79;76.24
68145;BME280;55400;51.824;-0.196;2023-02-14T07:38:18;102217.74;;;0.82;76.24
68145;BME280;55400;51.824;-0.196;2023-02-14T07:42:18;102225.87;;;0.80;76.33
68145;BME280;55400;51.824;-0.196;2023-02-14T07:46:18;102225.87;;;0.72;76.10
68145;BME280;55400;51.824;-0.196;2023-02-14T07:54:18;102229.02;;;0.73;76.47
68145;BME280;55400;51.824;-0.196;2023-02-14T07:58:18;102233.53;;;0.71;76.47
68145;BME280;55400;51.824;-0.196;2023-02-14T08:02:18;102233.53;;;0.73;76.60
68145;BME280;55400;51.824;-0.196;2023-02-14T08:06:18;102235.14;;;0.75;76.72
68145;BME280;55400;51.824;-0.196;2023-02-14T08:10:18;102235.14;;;0.79;76.64
68145;BME280;55400;51.824;-0.196;2023-02-14T08:14:18;102234.28;;;0.85;76.67
68145;BME280;55400;51.824;-0.196;2023-02-14T08:18:18;102235.92;;;0.90;76.78
68145;BME280;55400;51.824;-0.196;2023-02-14T08:22:18;102242.31999999999;;;0.95;76.84
68145;BME280;55400;51.824;-0.196;2023-02-14T08:26:18;102241.28;;;1.02;76.95
68145;BME280;55400;51.824;-0.196;2023-02-14T08:30:18;102239.34000000001;;;1.05;76.95
68145;BME280;55400;51.824;-0.196;2023-02-14T08:34:18;102238.23;;;1.11;76.97
68145;BME280;55400;51.824;-0.196;2023-02-14T08:38:18;102238.23;;;1.18;77.20
68145;BME280;55400;51.824;-0.196;2023-02-14T08:42:18;102243.11;;;1.26;77.47
68145;BME280;55400;51.824;-0.196;2023-02-14T08:46:18;102241.97;;;1.32;77.54
68145;BME280;55400;51.824;-0.196;2023-02-14T08:50:19;102243.44;;;1.38;77.54
68145;BME280;55400;51.824;-0.196;2023-02-14T08:54:18;102246.01;;;1.43;77.64
68145;BME280;55400;51.824;-0.196;2023-02-14T08:58:18;102242.16;;;1.47;77.75
68145;BME280;55400;51.824;-0.196;2023-02-14T09:02:18;102242.16;;;1.49;77.75
68145;BME280;55400;51.824;-0.196;2023-02-14T09:06:18;102239.89;;;1.55;77.91
68145;BME280;55400;51.824;-0.196;2023-02-14T09:10:18;102236.55;;;1.60;78.15
68145;BME280;55400;51.824;-0.196;2023-02-14T09:14:19;102234.45;;;1.65;78.11
68145;BME280;55400;51.824;-0.196;2023-02-14T09:18:18;102236.91;;;1.69;78.29
68145;BME280;55400;51.824;-0.196;2023-02-14T09:22:18;102230.52;;;1.76;78.57
68145;BME280;55400;51.824;-0.196;2023-02-14T09:26:18;102223.8;;;1.83;78.68
68145;BME280;55400;51.824;-0.196;2023-02-14T09:30:18;102223.53;;;1.92;78.68
68145;BME280;55400;51.824;-0.196;2023-02-14T09:34:18;102212.89;;;2.00;78.91
68145;BME280;55400;51.824;-0.196;2023-02-14T09:38:19;102213.95;;;2.10;78.93
68145;BME280;55400;51.824;-0.196;2023-02-14T09:42:21;102213.95;;;2.14;79.08
68145;BME280;55400;51.824;-0.196;2023-02-14T09:46:19;102204.81;;;2.21;79.06
68145;BME280;55400;51.824;-0.196;2023-02-14T09:50:21;102210.49;;;2.28;79.42
68145;BME280;55400;51.824;-0.196;2023-02-14T09:54:20;102204.21;;;2.32;79.64
68145;BME280;55400;51.824;-0.196;2023-02-14T09:58:19;102203.16;;;2.35;79.64
68145;BME280;55400;51.824;-0.196;2023-02-14T10:02:27;102203.16;;;2.40;79.97
68145;BME280;55400;51.824;-0.196;2023-02-14T10:06:23;102199.03;;;2.47;80.70
68145;BME280;55400;51.824;-0.196;2023-02-14T10:10:19;102196.66;;;2.58;80.37
68145;BME280;55400;51.824;-0.196;2023-02-14T10:14:20;102197.05;;;2.79;80.46
68145;BME280;55400;51.824;-0.196;2023-02-14T10:18:19;102197.05;;;2.98;80.46
68145;BME280;55400;51.824;-0.196;2023-02-14T10:22:20;102190.91;;;3.16;80.21
68145;BME280;55400;51.824;-0.196;2023-02-14T10:26:20;102190.56;;;3.31;80.07
68145;BME280;55400;51.824;-0.196;2023-02-14T10:30:19;102190.56;;;3.45;80.07
68145;BME280;55400;51.824;-0.196;2023-02-14T10:34:19;102189.76;;;3.56;79.99
68145;BME280;55400;51.824;-0.196;2023-02-14T10:38:23;102189.76;;;3.65;80.17
68145;BME280;55400;51.824;-0.196;2023-02-14T10:42:21;102197.26000000001;;;3.75;80.20
68145;BME280;55400;51.824;-0.196;2023-02-14T10:46:22;102195.08;;;3.84;80.20
68145;BME280;55400;51.824;-0.196;2023-02-14T10:50:20;102195.08;;;3.91;80.21
68145;BME280;55400;51.824;-0.196;2023-02-14T10:54:19;102201.25;;;3.96;80.26
68145;BME280;55400;51.824;-0.196;2023-02-14T10:58:20;102197.56999999999;;;4.01;80.29
68145;BME280;55400;51.824;-0.196;2023-02-14T11:02:19;102197.56999999999;;;4.10;80.43
68145;BME280;55400;51.824;-0.196;2023-02-14T11:06:19;102200.5;;;4.20;80.38
68145;BME280;55400;51.824;-0.196;2023-02-14T11:10:19;102200.5;;;4.28;80.51
68145;BME280;55400;51.824;-0.196;2023-02-14T11:14:20;102199.91;;;4.34;80.43
68145;BME280;55400;51.824;-0.196;2023-02-14T11:18:20;102191.5;;;4.40;80.83
68145;BME280;55400;51.824;-0.196;2023-02-14T11:22:21;102191.5;;;4.50;80.83
68145;BME280;55400;51.824;-0.196;2023-02-14T11:26:20;102197.09;;;4.58;81.07
68145;BME280;55400;51.824;-0.196;2023-02-14T11:30:21;102178.86;;;4.67;81.07
68145;BME280;55400;51.824;-0.196;2023-02-14T11:34:23;102178.78;;;4.76;81.38
68145;BME280;55400;51.824;-0.196;2023-02-14T11:38:23;102178.78;;;4.82;81.42
68145;BME280;55400;51.824;-0.196;2023-02-14T11:46:24;102167.97;;;4.95;81.51
68145;BME280;55400;51.824;-0.196;2023-02-14T11:54:24;102153.66;;;4.96;81.76
68145;BME280;55400;51.824;-0.196;2023-02-14T11:58:24;102150.47;;;4.99;82.08
68145;BME280;55400;51.824;-0.196;2023-02-14T12:02:21;102147.96;;;5.05;82.19
68145;BME280;55400;51.824;-0.196;2023-02-14T12:06:21;102142.13;;;5.07;82.32
68145;BME280;55400;51.824;-0.196;2023-02-14T12:10:21;102136.83;;;5.10;82.32
68145;BME280;55400;51.824;-0.196;2023-02-14T12:14:20;102136.83;;;5.16;82.68
68145;BME280;55400;51.824;-0.196;2023-02-14T12:18:27;102128.93000000001;;;5.20;82.70
68145;BME280;55400;51.824;-0.196;2023-02-14T12:22:19;102124.11;;;5.23;83.06
68145;BME280;55400;51.824;-0.196;2023-02-14T12:26:23;102124.11;;;5.31;82.85
68145;BME280;55400;51.824;-0.196;2023-02-14T12:30:20;102121.53;;;5.39;82.98
68145;BME280;55400;51.824;-0.196;2023-02-14T12:34:19;102117.66;;;5.45;82.98
68145;BME280;55400;51.824;-0.196;2023-02-14T12:38:21;102112.77;;;5.50;83.14
68145;BME280;55400;51.824;-0.196;2023-02-14T12:42:23;102108.29;;;5.58;83.14
68145;BME280;55400;51.824;-0.196;2023-02-14T12:46:22;102108.29;;;5.67;83.20
68145;BME280;55400;51.824;-0.196;2023-02-14T12:50:21;102102.64;;;5.72;83.36
68145;BME280;55400;51.824;-0.196;2023-02-14T12:54:26;102091.3;;;5.80;83.16
68145;BME280;55400;51.824;-0.196;2023-02-14T12:58:22;102091.3;;;5.89;83.55
68145;BME280;55400;51.824;-0.196;2023-02-14T13:02:27;102086.15999999999;;;5.96;83.47
68145;BME280;55400;51.824;-0.196;2023-02-14T13:06:21;102086.15999999999;;;6.06;83.46
68145;BME280;55400;51.824;-0.196;2023-02-14T13:10:22;102080.54;;;6.12;83.48
68145;BME280;55400;51.824;-0.196;2023-02-14T13:14:24;102080.54;;;6.15;83.68
68145;BME280;55400;51.824;-0.196;2023-02-14T13:18:22;102077.44;;;6.23;83.54
68145;BME280;55400;51.824;-0.196;2023-02-14T13:22:20;102073.77;;;6.40;83.52
68145;BME280;55400;51.824;-0.196;2023-02-14T13:26:20;102065.06000000001;;;6.48;83.59
68145;BME280;55400;51.824;-0.196;2023-02-14T13:34:22;102059.59;;;6.51;83.41
68145;BME280;55400;51.824;-0.196;2023-02-14T13:38:19;102059.86;;;6.57;83.50
68145;BME280;55400;51.824;-0.196;2023-02-14T13:46:20;102048.17;;;6.72;83.44
68145;BME280;55400;51.824;-0.196;2023-02-14T13:50:19;102044.36;;;6.78;83.58
68145;BME280;55400;51.824;-0.196;2023-02-14T13:54:20;102043.78;;;6.84;83.58
68145;BME280;55400;51.824;-0.196;2023-02-14T13:58:19;102043.78;;;6.92;83.66
68145;BME280;55400;51.824;-0.196;2023-02-14T14:06:19;102029.89;;;7.13;83.81
68145;BME280;55400;51.824;-0.196;2023-02-14T14:14:28;102018.70999999999;;;7.37;83.46
68145;BME280;55400;51.824;-0.196;2023-02-14T14:22:19;102013.99;;;7.58;82.95
68145;BME280;55400;51.824;-0.196;2023-02-14T14:26:28;102013.99;;;7.66;82.63
68145;BME280;55400;51.824;-0.196;2023-02-14T14:30:20;102002.39;;;7.73;82.47
68145;BME280;55400;51.824;-0.196;2023-02-14T14:34:20;102004.45999999999;;;7.83;82.07
68145;BME280;55400;51.824;-0.196;2023-02-14T14:38:19;101996.2;;;8.03;82.22
68145;BME280;55400;51.824;-0.196;2023-02-14T14:42:19;101996.2;;;8.26;82.22
68145;BME280;55400;51.824;-0.196;2023-02-14T14:46:19;101989.53;;;8.48;81.84
68145;BME280;55400;51.824;-0.196;2023-02-14T14:50:20;101984.77;;;8.65;80.72
68145;BME280;55400;51.824;-0.196;2023-02-14T14:54:19;101979.24;;;8.80;79.82
68145;BME280;55400;51.824;-0.196;2023-02-14T15:02:20;101975.28;;;9.05;79.67
68145;BME280;55400;51.824;-0.196;2023-02-14T15:06:20;101969.53;;;9.17;78.96
68145;BME280;55400;51.824;-0.196;2023-02-14T15:10:20;101974.63;;;9.29;78.96
68145;BME280;55400;51.824;-0.196;2023-02-14T15:14:21;101971.45000000001;;;9.36;78.59
68145;BME280;55400;51.824;-0.196;2023-02-14T15:18:19;101966.75;;;9.44;78.05
68145;BME280;55400;51.824;-0.196;2023-02-14T15:22:20;101966.75;;;9.52;78.05
68145;BME280;55400;51.824;-0.196;2023-02-14T15:26:22;101955.64;;;9.56;77.42
68145;BME280;55400;51.824;-0.196;2023-02-14T15:30:21;101947.25;;;9.63;77.30
68145;BME280;55400;51.824;-0.196;2023-02-14T15:34:21;101943.95;;;9.69;77.12
68145;BME280;55400;51.824;-0.196;2023-02-14T15:38:19;101943.8;;;9.71;77.02
68145;BME280;55400;51.824;-0.196;2023-02-14T15:42:20;101935.63;;;9.73;77.17
68145;BME280;55400;51.824;-0.196;2023-02-14T15:46:25;101935.63;;;9.76;77.17
68145;BME280;55400;51.824;-0.196;2023-02-14T15:54:20;101937.99;;;9.80;76.92
68145;BME280;55400;51.824;-0.196;2023-02-14T15:58:20;101937.79;;;9.87;76.53
68145;BME280;55400;51.824;-0.196;2023-02-14T16:02:25;101937.06;;;9.96;76.55
68145;BME280;55400;51.824;-0.196;2023-02-14T16:06:29;101935.97;;;9.99;76.22
68145;BME280;55400;51.824;-0.196;2023-02-14T16:10:21;101935.02;;;9.95;76.04
68145;BME280;55400;51.824;-0.196;2023-02-14T16:18:30;101932.73000000001;;;10.02;76.10
68145;BME280;55400;51.824;-0.196;2023-02-14T16:22:23;101932.11;;;10.00;75.86
68145;BME280;55400;51.824;-0.196;2023-02-14T16:26:20;101930.58;;;9.86;75.88
68145;BME280;55400;51.824;-0.196;2023-02-14T16:30:20;101926.37;;;9.75;75.88
68145;BME280;55400;51.824;-0.196;2023-02-14T16:34:20;101923.78;;;9.62;76.30
68145;BME280;55400;51.824;-0.196;2023-02-14T16:38:20;101923.78;;;9.49;76.30
68145;BME280;55400;51.824;-0.196;2023-02-14T16:42:20;101919.92;;;9.37;76.55
68145;BME280;55400;51.824;-0.196;2023-02-14T16:46:21;101919.92;;;9.26;76.75
68145;BME280;55400;51.824;-0.196;2023-02-14T16:50:20;101911.28;;;9.14;76.84
68145;BME280;55400;51.824;-0.196;2023-02-14T16:54:20;101910.63;;;9.06;77.02
68145;BME280;55400;51.824;-0.196;2023-02-14T16:58:20;101910.63;;;8.95;77.07
68145;BME280;55400;51.824;-0.196;2023-02-14T17:02:20;101916.45999999999;;;8.82;77.17
68145;BME280;55400;51.824;-0.196;2023-02-14T17:06:20;101919.5;;;8.71;77.39
68145;BME280;55400;51.824;-0.196;2023-02-14T17:10:20;101915.78;;;8.60;77.39
68145;BME280;55400;51.824;-0.196;2023-02-14T17:14:21;101915.78;;;8.51;77.50
68145;BME280;55400;51.824;-0.196;2023-02-14T17:18:20;101915.05;;;8.42;77.50
68145;BME280;55400;51.824;-0.196;2023-02-14T17:22:20;101920.45000000001;;;8.33;77.53
68145;BME280;55400;51.824;-0.196;2023-02-14T17:26:20;101923.33;;;8.25;77.50
68145;BME280;55400;51.824;-0.196;2023-02-14T17:30:20;101923.33;;;8.16;77.53
68145;BME280;55400;51.824;-0.196;2023-02-14T17:34:20;101918.64;;;8.08;77.53
68145;BME280;55400;51.824;-0.196;2023-02-14T17:38:20;101915.3;;;7.99;77.59
68145;BME280;55400;51.824;-0.196;2023-02-14T17:42:20;101915.3;;;7.91;77.61
68145;BME280;55400;51.824;-0.196;2023-02-14T17:46:20;101913.17;;;7.84;77.59
68145;BME280;55400;51.824;-0.196;2023-02-14T17:50:20;101916.83;;;7.73;77.59
68145;BME280;55400;51.824;-0.196;2023-02-14T17:54:20;101916.83;;;7.61;77.59
68145;BME280;55400;51.824;-0.196;2023-02-14T17:58:20;101908.59;;;7.49;77.63
68145;BME280;55400;51.824;-0.196;2023-02-14T18:02:20;101914.36;;;7.42;77.67
68145;BME280;55400;51.824;-0.196;2023-02-14T18:06:20;101920.24;;;7.37;77.81
68145;BME280;55400;51.824;-0.196;2023-02-14T18:10:20;101919.92;;;7.29;77.84
68145;BME280;55400;51.824;-0.196;2023-02-14T18:14:20;101916.14;;;7.21;77.70
68145;BME280;55400;51.824;-0.196;2023-02-14T18:18:20;101916.14;;;7.16;77.70
68145;BME280;55400;51.824;-0.196;2023-02-14T18:22:20;101911.49;;;7.11;77.71
68145;BME280;55400;51.824;-0.196;2023-02-14T18:26:20;101911.49;;;7.05;77.60
68145;BME280;55400;51.824;-0.196;2023-02-14T18:30:20;101904.8;;;6.98;77.53
68145;BME280;55400;51.824;-0.196;2023-02-14T18:34:20;101899.14;;;6.93;77.54
68145;BME280;55400;51.824;-0.196;2023-02-14T18:38:20;101901.64;;;6.88;77.42
68145;BME280;55400;51.824;-0.196;2023-02-14T18:42:20;101901.64;;;6.84;77.42
68145;BME280;55400;51.824;-0.196;2023-02-14T18:46:21;101889.26;;;6.77;77.22
68145;BME280;55400;51.824;-0.196;2023-02-14T18:50:20;101889.26;;;6.69;77.22
68145;BME280;55400;51.824;-0.196;2023-02-14T18:54:20;101887.34;;;6.61;77.28
68145;BME280;55400;51.824;-0.196;2023-02-14T18:58:20;101883.93;;;6.52;77.39
68145;BME280;55400;51.824;-0.196;2023-02-14T19:02:20;101881.8;;;6.46;77.40
68145;BME280;55400;51.824;-0.196;2023-02-14T19:06:20;101874.37999999999;;;6.42;77.37
68145;BME280;55400;51.824;-0.196;2023-02-14T19:10:20;101874.01999999999;;;6.37;77.35
68145;BME280;55400;51.824;-0.196;2023-02-14T19:14:20;101875.81999999999;;;6.32;77.24
68145;BME280;55400;51.824;-0.196;2023-02-14T19:18:20;101875.81999999999;;;6.28;77.40
68145;BME280;55400;51.824;-0.196;2023-02-14T19:22:20;101874.33;;;6.24;77.32
68145;BME280;55400;51.824;-0.196;2023-02-14T19:26:21;101877.22;;;6.21;77.33
68145;BME280;55400;51.824;-0.196;2023-02-14T19:30:20;101874.84;;;6.17;77.50
68145;BME280;55400;51.824;-0.196;2023-02-14T19:34:21;101870.92;;;6.10;77.21
68145;BME280;55400;51.824;-0.196;2023-02-14T19:38:20;101870.87;;;6.05;77.08
68145;BME280;55400;51.824;-0.196;2023-02-14T19:42:20;101868.14;;;6.01;76.92
68145;BME280;55400;51.824;-0.196;2023-02-14T19:46:20;101870.86;;;5.94;76.92
68145;BME280;55400;51.824;-0.196;2023-02-14T19:50:20;101870.86;;;5.86;76.92
68145;BME280;55400;51.824;-0.196;2023-02-14T19:54:20;101871.14;;;5.79;76.80
68145;BME280;55400;51.824;-0.196;2023-02-14T19:58:20;101869.37000000001;;;5.75;76.82
68145;BME280;55400;51.824;-0.196;2023-02-14T20:02:20;101855.7;;;5.69;76.84
68145;BME280;55400;51.824;-0.196;2023-02-14T20:06:20;101855.7;;;5.64;76.84
68145;BME280;55400;51.824;-0.196;2023-02-14T20:10:20;101852.95;;;5.59;76.89
68145;BME280;55400;51.824;-0.196;2023-02-14T20:14:21;101851.62;;;5.50;76.87
68145;BME280;55400;51.824;-0.196;2023-02-14T20:18:20;101846.04000000001;;;5.43;76.77
68145;BME280;55400;51.824;-0.196;2023-02-14T20:22:20;101846.04000000001;;;5.40;76.86
68145;BME280;55400;51.824;-0.196;2023-02-14T20:26:20;101837.05;;;5.36;76.81
68145;BME280;55400;51.824;-0.196;2023-02-14T20:30:20;101837.05;;;5.32;76.81
68145;BME280;55400;51.824;-0.196;2023-02-14T20:34:20;101832.11;;;5.26;76.81
68145;BME280;55400;51.824;-0.196;2023-02-14T20:38:20;101828.18;;;5.20;76.76
68145;BME280;55400;51.824;-0.196;2023-02-14T20:42:20;101828.18;;;5.13;76.80
68145;BME280;55400;51.824;-0.196;2023-02-14T20:46:20;101822.70999999999;;;5.08;76.59
68145;BME280;55400;51.824;-0.196;2023-02-14T20:50:20;101830.6;;;5.03;76.61
68145;BME280;55400;51.824;-0.196;2023-02-14T20:54:21;101830.6;;;5.00;76.57
68145;BME280;55400;51.824;-0.196;2023-02-14T20:58:20;101820.26;;;4.99;76.60
68145;BME280;55400;51.824;-0.196;2023-02-14T21:02:20;101811.06999999999;;;4.96;76.43
68145;BME280;55400;51.824;-0.196;2023-02-14T21:06:21;101804.24;;;4.90;76.29
68145;BME280;55400;51.824;-0.196;2023-02-14T21:10:20;101804.24;;;4.84;76.29
68145;BME280;55400;51.824;-0.196;2023-02-14T21:14:20;101810.96;;;4.76;76.27
68145;BME280;55400;51.824;-0.196;2023-02-14T21:18:20;101814.34000000001;;;4.67;76.40
68145;BME280;55400;51.824;-0.196;2023-02-14T21:22:20;101816.11;;;4.62;76.55
68145;BME280;55400;51.824;-0.196;2023-02-14T21:26:20;101816.11;;;4.59;76.55
68145;BME280;55400;51.824;-0.196;2023-02-14T21:30:20;101807.73000000001;;;4.57;76.69
68145;BME280;55400;51.824;-0.196;2023-02-14T21:34:20;101797.73;;;4.53;76.66
68145;BME280;55400;51.824;-0.196;2023-02-14T21:38:20;101799.84;;;4.48;76.69
68145;BME280;55400;51.824;-0.196;2023-02-14T21:42:20;101801.12000000001;;;4.42;76.65
68145;BME280;55400;51.824;-0.196;2023-02-14T21:46:22;101801.07;;;4.29;76.52
68145;BME280;55400;51.824;-0.196;2023-02-14T21:50:20;101795.86;;;4.17;76.18